createdAt,value
2023-03-21T00:05:59.544Z,100956.59
2023-03-21T00:16:11.880Z,100954.06
2023-03-21T00:26:22.753Z,100942.09
2023-03-21T00:36:27.007Z,100925.00
2023-03-21T00:46:43.656Z,100919.88
2023-03-21T00:56:48.480Z,100916.59
2023-03-21T01:06:52.898Z,100902.94
2023-03-21T01:16:56.151Z,100901.09
2023-03-21T01:27:00.684Z,100888.28
2023-03-21T01:37:03.931Z,100882.47
2023-03-21T01:47:13.263Z,100878.09
2023-03-21T01:58:02.402Z,100871.88
2023-03-21T02:08:14.846Z,100865.13
2023-03-21T02:18:26.645Z,100852.41
2023-03-21T02:28:34.407Z,100826.63
2023-03-21T02:38:47.656Z,100820.63
2023-03-21T02:48:55.758Z,100816.41
2023-03-21T02:59:01.590Z,100817.19
2023-03-21T03:09:25.953Z,100811.38
2023-03-21T03:19:49.558Z,100805.47
2023-03-21T03:29:56.330Z,100791.75
2023-03-21T03:40:10.070Z,100792.63
2023-03-21T03:50:23.160Z,100781.41
2023-03-21T04:10:49.760Z,100772.00
2023-03-21T04:20:55.385Z,100769.47
2023-03-21T04:31:06.642Z,100764.34
2023-03-21T04:41:22.127Z,100750.72
2023-03-21T04:51:26.315Z,100759.19
2023-03-21T05:01:31.644Z,100760.09
2023-03-21T05:11:37.842Z,100757.59
2023-03-21T05:21:45.259Z,100752.47
2023-03-21T05:31:54.476Z,100760.16
2023-03-21T05:41:59.202Z,100762.66
2023-03-21T05:52:03.754Z,100756.72
2023-03-21T06:02:08.268Z,100763.50
2023-03-21T06:12:13.309Z,100757.41
2023-03-21T06:22:42.711Z,100756.34
2023-03-21T06:32:47.722Z,100759.69
2023-03-21T06:42:56.022Z,100769.84
2023-03-21T06:53:00.132Z,100777.44
2023-03-21T07:03:08.214Z,100778.97
2023-03-21T07:13:11.621Z,100785.88
2023-03-21T07:23:23.750Z,100803.09
2023-03-21T07:33:28.096Z,100807.63
2023-03-21T07:43:39.005Z,100799.56
2023-03-21T07:53:48.869Z,100797.28
2023-03-21T08:03:53.699Z,100800.22
2023-03-21T08:13:57.041Z,100811.69
2023-03-21T08:24:01.576Z,100803.06
2023-03-21T08:34:04.780Z,100795.41
2023-03-21T08:44:09.313Z,100804.22
2023-03-21T08:54:20.657Z,100803.16
2023-03-21T09:04:26.254Z,100812.75
2023-03-21T09:14:29.702Z,100810.00
2023-03-21T09:24:37.374Z,100793.00
2023-03-21T09:34:42.784Z,100791.75
2023-03-21T09:45:05.695Z,100800.34
2023-03-21T09:55:20.840Z,100790.41
2023-03-21T10:05:28.596Z,100797.22
2023-03-21T10:15:33.762Z,100775.94
2023-03-21T10:25:42.587Z,100769.69
2023-03-21T10:35:50.764Z,100747.41
2023-03-21T10:45:56.006Z,100733.03
2023-03-21T10:56:02.504Z,100723.66
2023-03-21T11:06:10.226Z,100721.69
2023-03-21T11:16:23.746Z,100713.38
2023-03-21T11:26:32.397Z,100705.31
2023-03-21T11:36:39.894Z,100698.44
2023-03-21T11:46:45.039Z,100680.53
2023-03-21T11:56:50.698Z,100662.47
2023-03-21T12:07:05.938Z,100666.75
2023-03-21T12:17:39.315Z,100633.31
2023-03-21T12:27:52.349Z,100605.56
2023-03-21T12:38:08.286Z,100628.94
2023-03-21T12:48:22.423Z,100628.38
2023-03-21T12:58:29.216Z,100647.16
2023-03-21T13:08:39.831Z,100621.50
2023-03-21T13:18:53.660Z,100589.66
2023-03-21T13:29:00.575Z,100573.91
2023-03-21T13:39:07.080Z,100546.81
2023-03-21T13:49:26.753Z,100562.25
2023-03-21T13:59:43.540Z,100526.13
2023-03-21T14:09:52.019Z,100512.25
2023-03-21T14:19:58.232Z,100504.03
2023-03-21T14:30:04.599Z,100484.00
2023-03-21T14:40:18.516Z,100475.28
2023-03-21T14:50:25.559Z,100494.88
2023-03-21T15:00:30.983Z,100481.50
2023-03-21T15:10:36.147Z,100474.72
2023-03-21T15:20:40.773Z,100461.50
2023-03-21T15:30:51.428Z,100437.47
2023-03-21T15:41:15.525Z,100431.00
2023-03-21T15:51:24.287Z,100429.88
2023-03-21T16:01:27.751Z,100430.50
2023-03-21T16:11:39.977Z,100424.44
2023-03-21T16:21:43.181Z,100417.78
2023-03-21T16:31:49.990Z,100418.41
2023-03-21T16:41:54.463Z,100413.13
2023-03-21T16:51:59.228Z,100422.03
2023-03-21T17:02:03.713Z,100433.13
2023-03-21T17:12:14.968Z,100428.19
2023-03-21T17:22:18.483Z,100443.84
2023-03-21T17:32:23.334Z,100457.72
2023-03-21T17:42:26.833Z,100471.56
2023-03-21T17:52:31.937Z,100476.00
2023-03-21T18:02:35.391Z,100468.28
2023-03-21T18:12:41.107Z,100455.47
2023-03-21T18:22:44.654Z,100447.78
2023-03-21T18:32:52.694Z,100453.06
2023-03-21T18:43:49.922Z,100457.44
2023-03-21T19:03:53.190Z,100472.41
2023-03-21T19:14:08.937Z,100466.72
2023-03-21T19:24:28.938Z,100459.13
2023-03-21T19:34:33.721Z,100467.81
2023-03-21T19:44:36.969Z,100456.63
2023-03-21T19:54:41.274Z,100457.69
2023-03-21T20:04:44.375Z,100458.75
2023-03-21T20:14:49.233Z,100452.59
2023-03-21T20:24:52.701Z,100456.75
2023-03-21T20:35:10.141Z,100457.50
2023-03-21T20:45:20.404Z,100451.47
2023-03-21T20:55:25.023Z,100436.06
2023-03-21T21:05:34.547Z,100436.69
2023-03-21T21:15:39.631Z,100439.97
2023-03-21T21:25:42.584Z,100431.81
2023-03-21T21:35:49.243Z,100415.91
2023-03-21T21:45:53.745Z,100413.50
2023-03-21T21:55:58.068Z,100413.81
2023-03-21T22:06:03.202Z,100417.34
2023-03-21T22:16:08.689Z,100421.69
2023-03-21T22:26:12.340Z,100401.13
2023-03-21T22:36:16.896Z,100403.78
2023-03-21T22:46:19.948Z,100397.84
2023-03-21T22:56:24.350Z,100399.50
2023-03-21T23:06:30.073Z,100388.59
2023-03-21T23:16:35.063Z,100384.47
2023-03-21T23:26:41.133Z,100387.91
2023-03-21T23:36:45.638Z,100373.31
2023-03-21T23:46:48.789Z,100381.84
2023-03-21T23:56:53.004Z,100384.47
